sensor_id;sensor_type;location;lat;lon;timestamp;P1;durP1;ratioP1;P2;durP2;ratioP2
27489;SDS011;14925;51.026;13.752;2023-07-13T00:02:14;4.90;;;1.90;;
27489;SDS011;14925;51.026;13.752;2023-07-13T00:04:40;3.65;;;1.70;;
27489;SDS011;14925;51.026;13.752;2023-07-13T00:07:05;3.33;;;1.38;;
27489;SDS011;14925;51.026;13.752;2023-07-13T00:09:30;2.03;;;1.60;;
27489;SDS011;14925;51.026;13.752;2023-07-13T00:11:56;4.57;;;1.77;;
27489;SDS011;14925;51.026;13.752;2023-07-13T00:14:23;2.03;;;1.60;;
27489;SDS011;14925;51.026;13.752;2023-07-13T00:16:51;3.70;;;1.60;;
27489;SDS011;14925;51.026;13.752;2023-07-13T00:19:16;6.18;;;1.90;;
27489;SDS011;14925;51.026;13.752;2023-07-13T00:21:42;5.05;;;1.63;;
27489;SDS011;14925;51.026;13.752;2023-07-13T00:24:08;2.90;;;1.77;;
27489;SDS011;14925;51.026;13.752;2023-07-13T00:26:37;4.28;;;1.45;;
27489;SDS011;14925;51.026;13.752;2023-07-13T00:29:03;1.73;;;1.40;;
27489;SDS011;14925;51.026;13.752;2023-07-13T00:31:29;2.72;;;1.83;;
27489;SDS011;14925;51.026;13.752;2023-07-13T00:33:55;7.80;;;1.88;;
27489;SDS011;14925;51.026;13.752;2023-07-13T00:36:20;2.53;;;1.70;;
27489;SDS011;14925;51.026;13.752;2023-07-13T00:38:46;3.85;;;1.95;;
27489;SDS011;14925;51.026;13.752;2023-07-13T00:41:12;4.45;;;1.90;;
27489;SDS011;14925;51.026;13.752;2023-07-13T00:43:37;3.92;;;1.90;;
27489;SDS011;14925;51.026;13.752;2023-07-13T00:46:20;3.83;;;2.00;;
27489;SDS011;14925;51.026;13.752;2023-07-13T00:48:46;4.53;;;1.98;;
27489;SDS011;14925;51.026;13.752;2023-07-13T00:51:13;4.72;;;2.10;;
27489;SDS011;14925;51.026;13.752;2023-07-13T00:53:39;6.80;;;2.22;;
27489;SDS011;14925;51.026;13.752;2023-07-13T00:56:04;5.50;;;2.40;;
27489;SDS011;14925;51.026;13.752;2023-07-13T00:58:30;5.15;;;2.20;;
27489;SDS011;14925;51.026;13.752;2023-07-13T01:00:55;6.68;;;2.50;;
27489;SDS011;14925;51.026;13.752;2023-07-13T01:03:21;5.95;;;2.58;;
27489;SDS011;14925;51.026;13.752;2023-07-13T01:05:49;6.43;;;2.80;;
27489;SDS011;14925;51.026;13.752;2023-07-13T01:08:15;4.30;;;2.55;;
27489;SDS011;14925;51.026;13.752;2023-07-13T01:10:47;5.68;;;2.80;;
27489;SDS011;14925;51.026;13.752;2023-07-13T01:13:16;6.43;;;3.30;;
27489;SDS011;14925;51.026;13.752;2023-07-13T01:15:43;7.43;;;3.80;;
27489;SDS011;14925;51.026;13.752;2023-07-13T01:18:11;7.13;;;3.10;;
27489;SDS011;14925;51.026;13.752;2023-07-13T01:20:40;7.05;;;3.20;;
27489;SDS011;14925;51.026;13.752;2023-07-13T01:23:07;8.75;;;3.55;;
27489;SDS011;14925;51.026;13.752;2023-07-13T01:25:35;6.88;;;4.15;;
27489;SDS011;14925;51.026;13.752;2023-07-13T01:28:02;7.57;;;3.78;;
27489;SDS011;14925;51.026;13.752;2023-07-13T01:30:28;5.43;;;4.40;;
27489;SDS011;14925;51.026;13.752;2023-07-13T01:32:54;8.43;;;4.10;;
27489;SDS011;14925;51.026;13.752;2023-07-13T01:35:19;10.05;;;5.47;;
27489;SDS011;14925;51.026;13.752;2023-07-13T01:37:45;11.63;;;5.15;;
27489;SDS011;14925;51.026;13.752;2023-07-13T01:40:10;9.02;;;3.53;;
27489;SDS011;14925;51.026;13.752;2023-07-13T01:42:37;6.70;;;3.75;;
27489;SDS011;14925;51.026;13.752;2023-07-13T01:45:02;7.53;;;4.07;;
27489;SDS011;14925;51.026;13.752;2023-07-13T01:47:28;6.53;;;4.30;;
27489;SDS011;14925;51.026;13.752;2023-07-13T01:49:55;9.23;;;3.97;;
27489;SDS011;14925;51.026;13.752;2023-07-13T01:52:21;6.32;;;3.83;;
27489;SDS011;14925;51.026;13.752;2023-07-13T01:54:46;9.32;;;4.00;;
27489;SDS011;14925;51.026;13.752;2023-07-13T01:57:12;5.32;;;4.15;;
27489;SDS011;14925;51.026;13.752;2023-07-13T01:59:37;9.93;;;5.00;;
27489;SDS011;14925;51.026;13.752;2023-07-13T02:02:02;5.43;;;4.10;;
27489;SDS011;14925;51.026;13.752;2023-07-13T02:04:28;6.65;;;4.20;;
27489;SDS011;14925;51.026;13.752;2023-07-13T02:06:53;7.90;;;4.38;;
27489;SDS011;14925;51.026;13.752;2023-07-13T02:09:20;6.82;;;4.28;;
27489;SDS011;14925;51.026;13.752;2023-07-13T02:11:45;6.45;;;4.53;;
27489;SDS011;14925;51.026;13.752;2023-07-13T02:14:11;6.28;;;4.10;;
27489;SDS011;14925;51.026;13.752;2023-07-13T02:16:36;7.72;;;4.70;;
27489;SDS011;14925;51.026;13.752;2023-07-13T02:19:02;10.60;;;4.68;;
27489;SDS011;14925;51.026;13.752;2023-07-13T02:21:27;8.75;;;4.85;;
27489;SDS011;14925;51.026;13.752;2023-07-13T02:23:52;9.50;;;4.93;;
27489;SDS011;14925;51.026;13.752;2023-07-13T02:26:18;5.82;;;4.55;;
27489;SDS011;14925;51.026;13.752;2023-07-13T02:28:44;9.75;;;4.78;;
27489;SDS011;14925;51.026;13.752;2023-07-13T02:31:10;7.25;;;3.70;;
27489;SDS011;14925;51.026;13.752;2023-07-13T02:33:37;11.00;;;4.13;;
27489;SDS011;14925;51.026;13.752;2023-07-13T02:36:02;11.43;;;4.45;;
27489;SDS011;14925;51.026;13.752;2023-07-13T02:38:30;5.38;;;3.92;;
27489;SDS011;14925;51.026;13.752;2023-07-13T02:40:58;7.35;;;4.25;;
27489;SDS011;14925;51.026;13.752;2023-07-13T02:43:24;10.20;;;4.53;;
27489;SDS011;14925;51.026;13.752;2023-07-13T02:45:49;8.02;;;5.18;;
27489;SDS011;14925;51.026;13.752;2023-07-13T02:48:14;7.13;;;5.30;;
27489;SDS011;14925;51.026;13.752;2023-07-13T02:50:40;8.07;;;4.90;;
27489;SDS011;14925;51.026;13.752;2023-07-13T02:53:05;8.05;;;4.47;;
27489;SDS011;14925;51.026;13.752;2023-07-13T02:55:31;6.28;;;4.28;;
27489;SDS011;14925;51.026;13.752;2023-07-13T02:57:56;6.22;;;4.32;;
27489;SDS011;14925;51.026;13.752;2023-07-13T03:00:22;9.77;;;4.35;;
27489;SDS011;14925;51.026;13.752;2023-07-13T03:02:47;9.45;;;4.70;;
27489;SDS011;14925;51.026;13.752;2023-07-13T03:05:13;10.07;;;5.57;;
27489;SDS011;14925;51.026;13.752;2023-07-13T03:07:39;7.75;;;4.38;;
27489;SDS011;14925;51.026;13.752;2023-07-13T03:10:05;8.63;;;5.47;;
27489;SDS011;14925;51.026;13.752;2023-07-13T03:12:31;6.50;;;4.90;;
27489;SDS011;14925;51.026;13.752;2023-07-13T03:14:57;6.25;;;5.30;;
27489;SDS011;14925;51.026;13.752;2023-07-13T03:17:22;6.30;;;5.00;;
27489;SDS011;14925;51.026;13.752;2023-07-13T03:19:48;13.68;;;5.38;;
27489;SDS011;14925;51.026;13.752;2023-07-13T03:22:16;7.97;;;4.97;;
27489;SDS011;14925;51.026;13.752;2023-07-13T03:24:42;9.52;;;4.60;;
27489;SDS011;14925;51.026;13.752;2023-07-13T03:27:07;8.02;;;4.55;;
27489;SDS011;14925;51.026;13.752;2023-07-13T03:29:33;6.50;;;4.18;;
27489;SDS011;14925;51.026;13.752;2023-07-13T03:31:58;9.55;;;4.60;;
27489;SDS011;14925;51.026;13.752;2023-07-13T03:34:24;9.68;;;4.68;;
27489;SDS011;14925;51.026;13.752;2023-07-13T03:36:49;6.53;;;4.40;;
27489;SDS011;14925;51.026;13.752;2023-07-13T03:39:15;8.43;;;5.30;;
27489;SDS011;14925;51.026;13.752;2023-07-13T03:41:40;8.13;;;4.93;;
27489;SDS011;14925;51.026;13.752;2023-07-13T03:44:06;9.75;;;4.43;;
27489;SDS011;14925;51.026;13.752;2023-07-13T03:46:32;7.13;;;4.20;;
27489;SDS011;14925;51.026;13.752;2023-07-13T03:48:58;6.95;;;4.20;;
27489;SDS011;14925;51.026;13.752;2023-07-13T03:51:24;7.47;;;4.53;;
27489;SDS011;14925;51.026;13.752;2023-07-13T03:53:50;8.13;;;4.35;;
27489;SDS011;14925;51.026;13.752;2023-07-13T03:56:16;7.63;;;4.45;;
27489;SDS011;14925;51.026;13.752;2023-07-13T03:58:43;11.00;;;4.78;;
27489;SDS011;14925;51.026;13.752;2023-07-13T04:01:11;8.10;;;5.10;;
27489;SDS011;14925;51.026;13.752;2023-07-13T04:03:37;8.43;;;5.45;;
27489;SDS011;14925;51.026;13.752;2023-07-13T04:06:03;10.27;;;4.53;;
27489;SDS011;14925;51.026;13.752;2023-07-13T04:08:32;7.30;;;4.85;;
27489;SDS011;14925;51.026;13.752;2023-07-13T04:10:58;10.27;;;4.95;;
27489;SDS011;14925;51.026;13.752;2023-07-13T04:13:24;7.78;;;5.40;;
27489;SDS011;14925;51.026;13.752;2023-07-13T04:15:50;7.38;;;4.78;;
27489;SDS011;14925;51.026;13.752;2023-07-13T04:18:16;8.93;;;4.97;;
27489;SDS011;14925;51.026;13.752;2023-07-13T04:20:42;7.70;;;5.45;;
27489;SDS011;14925;51.026;13.752;2023-07-13T04:23:07;7.35;;;4.20;;
27489;SDS011;14925;51.026;13.752;2023-07-13T04:25:33;8.00;;;4.38;;
27489;SDS011;14925;51.026;13.752;2023-07-13T04:27:58;7.68;;;4.63;;
27489;SDS011;14925;51.026;13.752;2023-07-13T04:30:23;8.98;;;4.53;;
27489;SDS011;14925;51.026;13.752;2023-07-13T04:32:50;8.07;;;4.50;;
27489;SDS011;14925;51.026;13.752;2023-07-13T04:35:17;11.18;;;4.43;;
27489;SDS011;14925;51.026;13.752;2023-07-13T04:37:43;6.60;;;4.50;;
27489;SDS011;14925;51.026;13.752;2023-07-13T04:40:08;7.72;;;4.15;;
27489;SDS011;14925;51.026;13.752;2023-07-13T04:42:37;7.30;;;3.97;;
27489;SDS011;14925;51.026;13.752;2023-07-13T04:45:04;7.45;;;4.05;;
27489;SDS011;14925;51.026;13.752;2023-07-13T04:47:31;9.57;;;3.58;;
27489;SDS011;14925;51.026;13.752;2023-07-13T04:49:56;7.00;;;4.40;;
27489;SDS011;14925;51.026;13.752;2023-07-13T04:52:22;6.53;;;4.47;;
27489;SDS011;14925;51.026;13.752;2023-07-13T04:54:48;7.05;;;4.47;;
27489;SDS011;14925;51.026;13.752;2023-07-13T04:57:13;7.43;;;4.35;;
27489;SDS011;14925;51.026;13.752;2023-07-13T04:59:39;6.05;;;3.60;;
27489;SDS011;14925;51.026;13.752;2023-07-13T05:02:05;8.30;;;4.07;;
27489;SDS011;14925;51.026;13.752;2023-07-13T05:04:30;7.05;;;3.78;;
27489;SDS011;14925;51.026;13.752;2023-07-13T05:06:56;9.35;;;3.75;;
27489;SDS011;14925;51.026;13.752;2023-07-13T05:09:21;7.05;;;3.70;;
27489;SDS011;14925;51.026;13.752;2023-07-13T05:11:47;9.70;;;3.80;;
27489;SDS011;14925;51.026;13.752;2023-07-13T05:14:12;8.70;;;3.85;;
27489;SDS011;14925;51.026;13.752;2023-07-13T05:16:37;7.18;;;3.65;;
27489;SDS011;14925;51.026;13.752;2023-07-13T05:19:03;11.88;;;3.70;;
27489;SDS011;14925;51.026;13.752;2023-07-13T05:21:28;10.32;;;3.88;;
27489;SDS011;14925;51.026;13.752;2023-07-13T05:23:54;11.23;;;3.58;;
27489;SDS011;14925;51.026;13.752;2023-07-13T05:26:19;7.38;;;3.38;;
27489;SDS011;14925;51.026;13.752;2023-07-13T05:28:45;7.68;;;3.90;;
27489;SDS011;14925;51.026;13.752;2023-07-13T05:31:11;7.50;;;3.58;;
27489;SDS011;14925;51.026;13.752;2023-07-13T05:33:37;8.80;;;3.30;;
27489;SDS011;14925;51.026;13.752;2023-07-13T05:36:02;7.63;;;3.80;;
27489;SDS011;14925;51.026;13.752;2023-07-13T05:38:28;8.15;;;4.05;;
27489;SDS011;14925;51.026;13.752;2023-07-13T05:40:54;7.63;;;3.78;;
27489;SDS011;14925;51.026;13.752;2023-07-13T05:43:21;5.60;;;3.03;;
27489;SDS011;14925;51.026;13.752;2023-07-13T05:45:46;6.45;;;3.30;;
27489;SDS011;14925;51.026;13.752;2023-07-13T05:48:14;7.32;;;3.60;;
27489;SDS011;14925;51.026;13.752;2023-07-13T05:50:39;5.47;;;3.65;;
27489;SDS011;14925;51.026;13.752;2023-07-13T05:53:05;6.47;;;3.45;;
27489;SDS011;14925;51.026;13.752;2023-07-13T05:55:30;8.30;;;4.13;;
27489;SDS011;14925;51.026;13.752;2023-07-13T05:57:56;5.78;;;3.22;;
27489;SDS011;14925;51.026;13.752;2023-07-13T06:00:23;8.90;;;3.25;;
27489;SDS011;14925;51.026;13.752;2023-07-13T06:02:49;9.80;;;2.85;;
27489;SDS011;14925;51.026;13.752;2023-07-13T06:05:14;9.18;;;3.33;;
27489;SDS011;14925;51.026;13.752;2023-07-13T06:07:40;8.85;;;2.65;;
27489;SDS011;14925;51.026;13.752;2023-07-13T06:10:06;6.53;;;2.60;;
27489;SDS011;14925;51.026;13.752;2023-07-13T06:12:31;8.70;;;2.75;;
27489;SDS011;14925;51.026;13.752;2023-07-13T06:14:57;9.32;;;2.20;;
27489;SDS011;14925;51.026;13.752;2023-07-13T06:17:22;4.78;;;2.20;;
27489;SDS011;14925;51.026;13.752;2023-07-13T06:19:47;5.20;;;2.30;;
27489;SDS011;14925;51.026;13.752;2023-07-13T06:22:13;10.40;;;2.33;;
27489;SDS011;14925;51.026;13.752;2023-07-13T06:24:38;7.78;;;2.80;;
27489;SDS011;14925;51.026;13.752;2023-07-13T06:27:03;9.25;;;2.80;;
27489;SDS011;14925;51.026;13.752;2023-07-13T06:29:29;10.38;;;2.67;;
27489;SDS011;14925;51.026;13.752;2023-07-13T06:31:55;6.75;;;2.58;;
27489;SDS011;14925;51.026;13.752;2023-07-13T06:34:20;4.05;;;2.30;;
27489;SDS011;14925;51.026;13.752;2023-07-13T06:36:45;8.27;;;2.47;;
27489;SDS011;14925;51.026;13.752;2023-07-13T06:39:11;5.90;;;2.00;;
27489;SDS011;14925;51.026;13.752;2023-07-13T06:41:36;6.90;;;2.47;;
27489;SDS011;14925;51.026;13.752;2023-07-13T06:44:03;5.47;;;2.35;;
27489;SDS011;14925;51.026;13.752;2023-07-13T06:46:29;6.32;;;2.80;;
27489;SDS011;14925;51.026;13.752;2023-07-13T06:48:55;9.32;;;2.40;;
27489;SDS011;14925;51.026;13.752;2023-07-13T06:51:20;7.43;;;2.40;;
27489;SDS011;14925;51.026;13.752;2023-07-13T06:53:46;5.22;;;2.60;;
27489;SDS011;14925;51.026;13.752;2023-07-13T06:56:11;7.47;;;2.53;;
27489;SDS011;14925;51.026;13.752;2023-07-13T06:58:37;6.35;;;2.58;;
27489;SDS011;14925;51.026;13.752;2023-07-13T07:01:03;7.45;;;2.70;;
27489;SDS011;14925;51.026;13.752;2023-07-13T07:03:29;4.55;;;2.40;;
27489;SDS011;14925;51.026;13.752;2023-07-13T07:06:01;6.07;;;2.75;;
27489;SDS011;14925;51.026;13.752;2023-07-13T07:08:31;7.32;;;2.67;;
27489;SDS011;14925;51.026;13.752;2023-07-13T07:10:56;7.07;;;2.33;;
27489;SDS011;14925;51.026;13.752;2023-07-13T07:13:21;5.53;;;2.47;;
27489;SDS011;14925;51.026;13.752;2023-07-13T07:15:47;6.88;;;2.30;;
27489;SDS011;14925;51.026;13.752;2023-07-13T07:18:12;4.18;;;2.20;;
27489;SDS011;14925;51.026;13.752;2023-07-13T07:20:37;10.60;;;2.30;;
27489;SDS011;14925;51.026;13.752;2023-07-13T07:23:03;7.78;;;2.35;;
27489;SDS011;14925;51.026;13.752;2023-07-13T07:25:28;11.15;;;2.75;;
27489;SDS011;14925;51.026;13.752;2023-07-13T07:27:56;6.57;;;2.00;;
27489;SDS011;14925;51.026;13.752;2023-07-13T07:30:22;6.43;;;2.10;;
27489;SDS011;14925;51.026;13.752;2023-07-13T07:32:50;6.78;;;1.80;;
27489;SDS011;14925;51.026;13.752;2023-07-13T07:35:22;3.00;;;1.90;;
27489;SDS011;14925;51.026;13.752;2023-07-13T07:37:47;6.10;;;1.92;;
27489;SDS011;14925;51.026;13.752;2023-07-13T07:40:15;4.32;;;1.75;;
27489;SDS011;14925;51.026;13.752;2023-07-13T07:42:49;9.25;;;1.88;;
27489;SDS011;14925;51.026;13.752;2023-07-13T07:45:16;4.88;;;1.95;;
27489;SDS011;14925;51.026;13.752;2023-07-13T07:47:41;3.90;;;2.08;;
27489;SDS011;14925;51.026;13.752;2023-07-13T07:50:13;5.82;;;2.15;;
27489;SDS011;14925;51.026;13.752;2023-07-13T07:52:39;5.10;;;1.88;;
27489;SDS011;14925;51.026;13.752;2023-07-13T07:55:05;6.47;;;2.35;;
27489;SDS011;14925;51.026;13.752;2023-07-13T07:57:31;3.60;;;1.60;;
27489;SDS011;14925;51.026;13.752;2023-07-13T07:59:57;4.45;;;1.80;;
27489;SDS011;14925;51.026;13.752;2023-07-13T08:02:22;6.00;;;1.67;;
27489;SDS011;14925;51.026;13.752;2023-07-13T08:04:48;6.28;;;1.52;;
27489;SDS011;14925;51.026;13.752;2023-07-13T08:07:14;6.90;;;1.70;;
27489;SDS011;14925;51.026;13.752;2023-07-13T08:09:39;7.47;;;1.70;;
27489;SDS011;14925;51.026;13.752;2023-07-13T08:12:07;5.53;;;1.88;;
27489;SDS011;14925;51.026;13.752;2023-07-13T08:14:36;3.25;;;1.52;;
27489;SDS011;14925;51.026;13.752;2023-07-13T08:17:03;8.13;;;1.90;;
27489;SDS011;14925;51.026;13.752;2023-07-13T08:19:31;5.35;;;1.80;;
27489;SDS011;14925;51.026;13.752;2023-07-13T08:21:59;5.78;;;1.80;;
27489;SDS011;14925;51.026;13.752;2023-07-13T08:24:25;3.55;;;1.58;;
27489;SDS011;14925;51.026;13.752;2023-07-13T08:26:51;4.47;;;1.73;;
27489;SDS011;14925;51.026;13.752;2023-07-13T08:29:17;5.78;;;1.73;;
27489;SDS011;14925;51.026;13.752;2023-07-13T08:31:45;8.00;;;2.03;;
27489;SDS011;14925;51.026;13.752;2023-07-13T08:34:11;5.88;;;1.90;;
27489;SDS011;14925;51.026;13.752;2023-07-13T08:36:36;6.28;;;1.80;;
27489;SDS011;14925;51.026;13.752;2023-07-13T08:39:02;4.57;;;1.67;;
27489;SDS011;14925;51.026;13.752;2023-07-13T08:41:27;4.10;;;1.70;;
27489;SDS011;14925;51.026;13.752;2023-07-13T08:43:58;4.53;;;2.00;;
27489;SDS011;14925;51.026;13.752;2023-07-13T08:46:32;6.72;;;1.92;;
27489;SDS011;14925;51.026;13.752;2023-07-13T08:54:08;5.90;;;1.40;;
27489;SDS011;14925;51.026;13.752;2023-07-13T08:56:56;4.23;;;1.40;;
27489;SDS011;14925;51.026;13.752;2023-07-13T08:59:24;5.78;;;2.58;;
27489;SDS011;14925;51.026;13.752;2023-07-13T09:04:45;6.20;;;1.80;;
27489;SDS011;14925;51.026;13.752;2023-07-13T09:09:55;7.22;;;1.98;;
27489;SDS011;14925;51.026;13.752;2023-07-13T09:18:44;7.55;;;1.58;;
27489;SDS011;14925;51.026;13.752;2023-07-13T09:20:48;3.72;;;1.67;;
27489;SDS011;14925;51.026;13.752;2023-07-13T09:23:37;5.20;;;1.55;;
27489;SDS011;14925;51.026;13.752;2023-07-13T09:26:18;8.02;;;1.75;;
27489;SDS011;14925;51.026;13.752;2023-07-13T09:28:47;6.05;;;1.70;;
27489;SDS011;14925;51.026;13.752;2023-07-13T09:33:41;4.63;;;1.60;;
27489;SDS011;14925;51.026;13.752;2023-07-13T09:36:21;4.38;;;1.58;;
27489;SDS011;14925;51.026;13.752;2023-07-13T09:38:53;3.95;;;1.50;;
27489;SDS011;14925;51.026;13.752;2023-07-13T09:41:53;3.85;;;1.45;;
27489;SDS011;14925;51.026;13.752;2023-07-13T09:46:56;4.10;;;1.40;;
27489;SDS011;14925;51.026;13.752;2023-07-13T09:49:29;3.22;;;1.42;;
27489;SDS011;14925;51.026;13.752;2023-07-13T09:52:04;5.00;;;1.58;;
27489;SDS011;14925;51.026;13.752;2023-07-13T09:54:32;3.78;;;1.60;;
27489;SDS011;14925;51.026;13.752;2023-07-13T09:56:59;5.38;;;1.73;;
27489;SDS011;14925;51.026;13.752;2023-07-13T09:59:30;6.50;;;1.50;;
27489;SDS011;14925;51.026;13.752;2023-07-13T10:02:01;6.55;;;1.90;;
27489;SDS011;14925;51.026;13.752;2023-07-13T10:04:29;4.35;;;1.50;;
27489;SDS011;14925;51.026;13.752;2023-07-13T10:07:04;9.30;;;1.85;;
27489;SDS011;14925;51.026;13.752;2023-07-13T10:09:33;5.20;;;1.65;;
27489;SDS011;14925;51.026;13.752;2023-07-13T10:11:58;9.30;;;2.10;;
27489;SDS011;14925;51.026;13.752;2023-07-13T10:14:25;5.55;;;1.60;;
27489;SDS011;14925;51.026;13.752;2023-07-13T10:16:52;5.35;;;1.77;;
27489;SDS011;14925;51.026;13.752;2023-07-13T10:19:25;4.65;;;1.70;;
27489;SDS011;14925;51.026;13.752;2023-07-13T10:21:56;5.13;;;1.48;;
27489;SDS011;14925;51.026;13.752;2023-07-13T10:24:31;7.05;;;1.58;;
27489;SDS011;14925;51.026;13.752;2023-07-13T10:29:47;3.47;;;1.40;;
27489;SDS011;14925;51.026;13.752;2023-07-13T10:32:16;6.05;;;1.63;;
27489;SDS011;14925;51.026;13.752;2023-07-13T10:34:44;4.05;;;1.83;;
27489;SDS011;14925;51.026;13.752;2023-07-13T10:37:17;5.82;;;1.80;;
27489;SDS011;14925;51.026;13.752;2023-07-13T10:39:45;4.10;;;1.80;;
27489;SDS011;14925;51.026;13.752;2023-07-13T10:42:11;5.07;;;2.03;;
27489;SDS011;14925;51.026;13.752;2023-07-13T10:44:40;4.90;;;1.52;;
27489;SDS011;14925;51.026;13.752;2023-07-13T10:47:06;3.65;;;1.55;;
27489;SDS011;14925;51.026;13.752;2023-07-13T10:49:43;4.97;;;1.40;;
27489;SDS011;14925;51.026;13.752;2023-07-13T10:58:03;6.43;;;1.77;;
27489;SDS011;14925;51.026;13.752;2023-07-13T11:00:49;6.93;;;1.42;;
27489;SDS011;14925;51.026;13.752;2023-07-13T11:03:18;3.22;;;1.42;;
27489;SDS011;14925;51.026;13.752;2023-07-13T11:05:50;4.95;;;1.55;;
27489;SDS011;14925;51.026;13.752;2023-07-13T11:10:58;4.45;;;1.20;;
27489;SDS011;14925;51.026;13.752;2023-07-13T11:18:44;4.03;;;1.30;;
27489;SDS011;14925;51.026;13.752;2023-07-13T11:23:53;4.93;;;1.20;;
27489;SDS011;14925;51.026;13.752;2023-07-13T11:31:56;4.10;;;1.17;;
27489;SDS011;14925;51.026;13.752;2023-07-13T11:37:01;7.80;;;1.88;;
27489;SDS011;14925;51.026;13.752;2023-07-13T11:39:37;5.72;;;1.35;;
27489;SDS011;14925;51.026;13.752;2023-07-13T11:42:07;7.47;;;1.70;;
27489;SDS011;14925;51.026;13.752;2023-07-13T11:44:41;5.32;;;1.80;;
27489;SDS011;14925;51.026;13.752;2023-07-13T11:47:08;5.47;;;1.55;;
27489;SDS011;14925;51.026;13.752;2023-07-13T11:49:41;5.63;;;2.03;;
27489;SDS011;14925;51.026;13.752;2023-07-13T11:52:12;6.20;;;1.77;;
27489;SDS011;14925;51.026;13.752;2023-07-13T11:54:56;5.80;;;1.35;;
27489;SDS011;14925;51.026;13.752;2023-07-13T11:57:26;3.50;;;1.40;;
27489;SDS011;14925;51.026;13.752;2023-07-13T11:59:53;3.53;;;1.30;;
27489;SDS011;14925;51.026;13.752;2023-07-13T12:02:31;3.78;;;1.50;;
27489;SDS011;14925;51.026;13.752;2023-07-13T12:04:58;7.60;;;1.50;;
27489;SDS011;14925;51.026;13.752;2023-07-13T12:07:25;3.97;;;1.40;;
27489;SDS011;14925;51.026;13.752;2023-07-13T12:09:59;6.55;;;1.60;;
27489;SDS011;14925;51.026;13.752;2023-07-13T12:12:51;5.93;;;1.15;;
27489;SDS011;14925;51.026;13.752;2023-07-13T12:15:18;4.10;;;1.40;;
27489;SDS011;14925;51.026;13.752;2023-07-13T12:17:45;4.03;;;1.70;;
27489;SDS011;14925;51.026;13.752;2023-07-13T12:20:44;4.43;;;1.38;;
27489;SDS011;14925;51.026;13.752;2023-07-13T12:23:10;6.95;;;1.60;;
27489;SDS011;14925;51.026;13.752;2023-07-13T12:25:47;3.47;;;1.48;;
27489;SDS011;14925;51.026;13.752;2023-07-13T12:28:22;4.63;;;1.35;;
27489;SDS011;14925;51.026;13.752;2023-07-13T12:31:03;3.55;;;1.67;;
27489;SDS011;14925;51.026;13.752;2023-07-13T12:33:31;3.88;;;1.40;;
27489;SDS011;14925;51.026;13.752;2023-07-13T12:35:57;4.82;;;1.40;;
27489;SDS011;14925;51.026;13.752;2023-07-13T12:38:26;3.78;;;1.20;;
27489;SDS011;14925;51.026;13.752;2023-07-13T12:40:52;4.72;;;1.70;;
27489;SDS011;14925;51.026;13.752;2023-07-13T12:43:19;8.77;;;1.67;;
27489;SDS011;14925;51.026;13.752;2023-07-13T12:45:56;3.25;;;1.25;;
27489;SDS011;14925;51.026;13.752;2023-07-13T12:48:27;7.13;;;1.40;;
27489;SDS011;14925;51.026;13.752;2023-07-13T12:50:55;4.97;;;1.25;;
27489;SDS011;14925;51.026;13.752;2023-07-13T12:53:29;7.43;;;1.70;;
27489;SDS011;14925;51.026;13.752;2023-07-13T12:55:59;3.97;;;1.40;;
27489;SDS011;14925;51.026;13.752;2023-07-13T12:58:27;6.63;;;1.50;;
27489;SDS011;14925;51.026;13.752;2023-07-13T13:00:55;5.72;;;1.58;;
27489;SDS011;14925;51.026;13.752;2023-07-13T13:06:05;4.00;;;1.55;;
27489;SDS011;14925;51.026;13.752;2023-07-13T13:08:55;4.30;;;1.20;;
27489;SDS011;14925;51.026;13.752;2023-07-13T13:11:23;5.97;;;1.30;;
27489;SDS011;14925;51.026;13.752;2023-07-13T13:13:51;6.07;;;1.80;;
27489;SDS011;14925;51.026;13.752;2023-07-13T13:16:21;3.53;;;1.25;;
27489;SDS011;14925;51.026;13.752;2023-07-13T13:18:56;4.63;;;1.42;;
27489;SDS011;14925;51.026;13.752;2023-07-13T13:21:23;2.85;;;1.30;;
27489;SDS011;14925;51.026;13.752;2023-07-13T13:23:49;4.30;;;1.30;;
27489;SDS011;14925;51.026;13.752;2023-07-13T13:26:23;4.72;;;1.58;;
27489;SDS011;14925;51.026;13.752;2023-07-13T13:28:49;4.20;;;1.30;;
27489;SDS011;14925;51.026;13.752;2023-07-13T13:31:14;3.22;;;1.10;;
27489;SDS011;14925;51.026;13.752;2023-07-13T13:33:44;6.05;;;1.40;;
27489;SDS011;14925;51.026;13.752;2023-07-13T13:36:20;4.88;;;1.40;;
27489;SDS011;14925;51.026;13.752;2023-07-13T13:38:48;3.30;;;1.17;;
27489;SDS011;14925;51.026;13.752;2023-07-13T13:41:14;4.45;;;1.70;;
27489;SDS011;14925;51.026;13.752;2023-07-13T13:43:40;4.40;;;1.40;;
27489;SDS011;14925;51.026;13.752;2023-07-13T13:46:14;4.85;;;1.50;;
27489;SDS011;14925;51.026;13.752;2023-07-13T13:48:42;7.82;;;1.73;;
27489;SDS011;14925;51.026;13.752;2023-07-13T13:51:13;3.22;;;1.30;;
27489;SDS011;14925;51.026;13.752;2023-07-13T13:53:38;4.82;;;1.27;;
27489;SDS011;14925;51.026;13.752;2023-07-13T13:56:04;4.25;;;1.20;;
27489;SDS011;14925;51.026;13.752;2023-07-13T13:58:30;7.03;;;1.40;;
27489;SDS011;14925;51.026;13.752;2023-07-13T14:00:55;8.63;;;1.52;;
27489;SDS011;14925;51.026;13.752;2023-07-13T14:03:21;5.95;;;1.52;;
27489;SDS011;14925;51.026;13.752;2023-07-13T14:05:47;4.45;;;1.50;;
27489;SDS011;14925;51.026;13.752;2023-07-13T14:08:14;5.80;;;1.50;;
27489;SDS011;14925;51.026;13.752;2023-07-13T14:10:40;5.90;;;1.20;;
27489;SDS011;14925;51.026;13.752;2023-07-13T14:13:07;3.33;;;1.27;;
27489;SDS011;14925;51.026;13.752;2023-07-13T14:15:45;2.85;;;1.30;;
27489;SDS011;14925;51.026;13.752;2023-07-13T14:18:10;3.70;;;1.35;;
27489;SDS011;14925;51.026;13.752;2023-07-13T14:20:37;6.57;;;1.52;;
27489;SDS011;14925;51.026;13.752;2023-07-13T14:23:02;6.85;;;1.45;;
27489;SDS011;14925;51.026;13.752;2023-07-13T14:25:27;2.97;;;1.30;;
27489;SDS011;14925;51.026;13.752;2023-07-13T14:27:53;3.28;;;1.30;;
27489;SDS011;14925;51.026;13.752;2023-07-13T14:30:23;6.55;;;1.35;;
27489;SDS011;14925;51.026;13.752;2023-07-13T14:32:49;4.22;;;1.58;;
27489;SDS011;14925;51.026;13.752;2023-07-13T14:35:15;3.47;;;1.27;;
27489;SDS011;14925;51.026;13.752;2023-07-13T14:37:43;5.20;;;1.25;;
27489;SDS011;14925;51.026;13.752;2023-07-13T14:40:16;9.90;;;1.50;;
27489;SDS011;14925;51.026;13.752;2023-07-13T14:42:44;5.00;;;1.40;;
27489;SDS011;14925;51.026;13.752;2023-07-13T14:45:13;4.53;;;1.40;;
27489;SDS011;14925;51.026;13.752;2023-07-13T14:47:40;3.40;;;1.45;;
27489;SDS011;14925;51.026;13.752;2023-07-13T14:50:11;4.38;;;1.50;;
27489;SDS011;14925;51.026;13.752;2023-07-13T14:52:40;5.93;;;1.45;;
27489;SDS011;14925;51.026;13.752;2023-07-13T14:55:10;8.52;;;1.30;;
27489;SDS011;14925;51.026;13.752;2023-07-13T14:57:39;6.95;;;1.50;;
27489;SDS011;14925;51.026;13.752;2023-07-13T15:00:07;3.20;;;1.27;;
27489;SDS011;14925;51.026;13.752;2023-07-13T15:02:38;5.88;;;1.23;;
27489;SDS011;14925;51.026;13.752;2023-07-13T15:05:25;6.63;;;1.58;;
27489;SDS011;14925;51.026;13.752;2023-07-13T15:07:56;6.90;;;1.60;;
27489;SDS011;14925;51.026;13.752;2023-07-13T15:10:24;3.83;;;1.20;;
27489;SDS011;14925;51.026;13.752;2023-07-13T15:12:51;2.97;;;1.25;;
27489;SDS011;14925;51.026;13.752;2023-07-13T15:15:18;7.85;;;1.45;;
27489;SDS011;14925;51.026;13.752;2023-07-13T15:17:44;4.45;;;1.50;;
27489;SDS011;14925;51.026;13.752;2023-07-13T15:20:25;3.53;;;1.25;;
27489;SDS011;14925;51.026;13.752;2023-07-13T15:22:53;3.78;;;1.17;;
27489;SDS011;14925;51.026;13.752;2023-07-13T15:25:19;6.55;;;1.20;;
27489;SDS011;14925;51.026;13.752;2023-07-13T15:27:47;4.35;;;1.10;;
27489;SDS011;14925;51.026;13.752;2023-07-13T15:30:13;5.03;;;1.30;;